sensor_id;sensor_type;location;lat;lon;timestamp;P1;durP1;ratioP1;P2;durP2;ratioP2
39214;SDS011;24932;51.746;14.334;2022-09-21T00:00:40;7.25;;;3.35;;
39214;SDS011;24932;51.746;14.334;2022-09-21T00:04:40;7.07;;;2.87;;
39214;SDS011;24932;51.746;14.334;2022-09-21T00:08:41;3.1;;;2.7;;
39214;SDS011;24932;51.746;14.334;2022-09-21T00:12:40;2.83;;;2.57;;
39214;SDS011;24932;51.746;14.334;2022-09-21T00:16:41;3.8;;;2.53;;
39214;SDS011;24932;51.746;14.334;2022-09-21T00:20:40;4.8;;;2.9;;
39214;SDS011;24932;51.746;14.334;2022-09-21T00:24:40;3.57;;;2.47;;
39214;SDS011;24932;51.746;14.334;2022-09-21T00:28:40;5.47;;;2.73;;
39214;SDS011;24932;51.746;14.334;2022-09-21T00:32:40;7.93;;;5.03;;
39214;SDS011;24932;51.746;14.334;2022-09-21T00:36:40;3.5;;;2.73;;
39214;SDS011;24932;51.746;14.334;2022-09-21T00:40:40;11.57;;;3.17;;
39214;SDS011;24932;51.746;14.334;2022-09-21T00:44:40;6.77;;;3.2;;
39214;SDS011;24932;51.746;14.334;2022-09-21T00:48:40;4.63;;;3.53;;
39214;SDS011;24932;51.746;14.334;2022-09-21T00:52:41;5.1;;;3.27;;
39214;SDS011;24932;51.746;14.334;2022-09-21T00:56:41;4.33;;;3.6;;
39214;SDS011;24932;51.746;14.334;2022-09-21T01:00:40;4.7;;;3.5;;
39214;SDS011;24932;51.746;14.334;2022-09-21T01:04:40;7.43;;;3.67;;
39214;SDS011;24932;51.746;14.334;2022-09-21T01:08:41;9.3;;;3.27;;
39214;SDS011;24932;51.746;14.334;2022-09-21T01:12:45;3.23;;;2.93;;
39214;SDS011;24932;51.746;14.334;2022-09-21T01:16:42;4.18;;;3.2;;
39214;SDS011;24932;51.746;14.334;2022-09-21T01:21:47;5.77;;;3.0;;
39214;SDS011;24932;51.746;14.334;2022-09-21T01:24:45;3.93;;;3.13;;
39214;SDS011;24932;51.746;14.334;2022-09-21T01:28:53;6.4;;;2.83;;
39214;SDS011;24932;51.746;14.334;2022-09-21T01:32:41;4.9;;;2.78;;
39214;SDS011;24932;51.746;14.334;2022-09-21T01:36:40;5.33;;;3.43;;
39214;SDS011;24932;51.746;14.334;2022-09-21T01:40:41;3.85;;;3.3;;
39214;SDS011;24932;51.746;14.334;2022-09-21T01:44:40;13.6;;;3.0;;
39214;SDS011;24932;51.746;14.334;2022-09-21T01:48:41;5.85;;;3.25;;
39214;SDS011;24932;51.746;14.334;2022-09-21T01:52:41;6.9;;;3.0;;
39214;SDS011;24932;51.746;14.334;2022-09-21T01:56:40;4.55;;;3.17;;
39214;SDS011;24932;51.746;14.334;2022-09-21T02:00:41;6.7;;;2.95;;
39214;SDS011;24932;51.746;14.334;2022-09-21T02:04:40;6.87;;;2.97;;
39214;SDS011;24932;51.746;14.334;2022-09-21T02:08:40;3.8;;;2.72;;
39214;SDS011;24932;51.746;14.334;2022-09-21T02:12:41;9.1;;;2.5;;
39214;SDS011;24932;51.746;14.334;2022-09-21T02:16:42;4.65;;;3.1;;
39214;SDS011;24932;51.746;14.334;2022-09-21T02:20:41;5.07;;;2.9;;
39214;SDS011;24932;51.746;14.334;2022-09-21T02:24:41;4.2;;;2.62;;
39214;SDS011;24932;51.746;14.334;2022-09-21T02:28:41;4.3;;;2.67;;
39214;SDS011;24932;51.746;14.334;2022-09-21T02:32:41;4.12;;;2.7;;
39214;SDS011;24932;51.746;14.334;2022-09-21T02:36:41;5.55;;;2.47;;
39214;SDS011;24932;51.746;14.334;2022-09-21T02:40:41;7.25;;;3.97;;
39214;SDS011;24932;51.746;14.334;2022-09-21T02:44:41;3.35;;;2.62;;
39214;SDS011;24932;51.746;14.334;2022-09-21T02:48:42;2.25;;;1.75;;
39214;SDS011;24932;51.746;14.334;2022-09-21T02:52:40;3.4;;;2.15;;
39214;SDS011;24932;51.746;14.334;2022-09-21T02:56:40;4.43;;;2.7;;
39214;SDS011;24932;51.746;14.334;2022-09-21T03:00:40;4.17;;;3.07;;
39214;SDS011;24932;51.746;14.334;2022-09-21T03:04:40;3.87;;;2.37;;
39214;SDS011;24932;51.746;14.334;2022-09-21T03:08:40;3.03;;;2.37;;
39214;SDS011;24932;51.746;14.334;2022-09-21T03:12:40;4.75;;;2.47;;
39214;SDS011;24932;51.746;14.334;2022-09-21T03:16:40;5.82;;;2.55;;
39214;SDS011;24932;51.746;14.334;2022-09-21T03:20:42;3.05;;;2.1;;
39214;SDS011;24932;51.746;14.334;2022-09-21T03:24:40;3.3;;;2.35;;
39214;SDS011;24932;51.746;14.334;2022-09-21T03:28:41;6.9;;;2.03;;
39214;SDS011;24932;51.746;14.334;2022-09-21T03:32:40;4.53;;;2.37;;
39214;SDS011;24932;51.746;14.334;2022-09-21T03:36:40;2.0;;;1.73;;
39214;SDS011;24932;51.746;14.334;2022-09-21T03:40:43;6.5;;;2.3;;
39214;SDS011;24932;51.746;14.334;2022-09-21T03:44:41;2.6;;;2.3;;
39214;SDS011;24932;51.746;14.334;2022-09-21T03:48:40;4.87;;;1.95;;
39214;SDS011;24932;51.746;14.334;2022-09-21T03:52:40;2.55;;;2.05;;
39214;SDS011;24932;51.746;14.334;2022-09-21T03:56:41;3.22;;;2.15;;
39214;SDS011;24932;51.746;14.334;2022-09-21T04:00:40;4.03;;;2.45;;
39214;SDS011;24932;51.746;14.334;2022-09-21T04:04:40;2.33;;;1.83;;
39214;SDS011;24932;51.746;14.334;2022-09-21T04:08:40;5.07;;;2.67;;
39214;SDS011;24932;51.746;14.334;2022-09-21T04:12:41;2.83;;;2.17;;
39214;SDS011;24932;51.746;14.334;2022-09-21T04:16:41;3.5;;;2.5;;
39214;SDS011;24932;51.746;14.334;2022-09-21T04:20:40;4.75;;;2.45;;
39214;SDS011;24932;51.746;14.334;2022-09-21T04:24:40;2.97;;;1.98;;
39214;SDS011;24932;51.746;14.334;2022-09-21T04:28:40;3.12;;;2.45;;
39214;SDS011;24932;51.746;14.334;2022-09-21T04:32:40;5.6;;;3.15;;
39214;SDS011;24932;51.746;14.334;2022-09-21T04:36:40;7.05;;;2.75;;
39214;SDS011;24932;51.746;14.334;2022-09-21T04:40:40;3.0;;;2.62;;
39214;SDS011;24932;51.746;14.334;2022-09-21T04:44:40;3.22;;;2.5;;
39214;SDS011;24932;51.746;14.334;2022-09-21T04:48:41;4.37;;;2.67;;
39214;SDS011;24932;51.746;14.334;2022-09-21T04:52:40;3.83;;;2.55;;
39214;SDS011;24932;51.746;14.334;2022-09-21T04:56:40;4.15;;;3.05;;
39214;SDS011;24932;51.746;14.334;2022-09-21T05:00:40;8.63;;;3.05;;
39214;SDS011;24932;51.746;14.334;2022-09-21T05:04:41;3.25;;;2.3;;
39214;SDS011;24932;51.746;14.334;2022-09-21T05:08:40;6.97;;;2.95;;
39214;SDS011;24932;51.746;14.334;2022-09-21T05:12:41;5.12;;;2.7;;
39214;SDS011;24932;51.746;14.334;2022-09-21T05:16:40;8.77;;;2.97;;
39214;SDS011;24932;51.746;14.334;2022-09-21T05:20:40;5.87;;;2.83;;
39214;SDS011;24932;51.746;14.334;2022-09-21T05:24:40;7.35;;;3.35;;
39214;SDS011;24932;51.746;14.334;2022-09-21T05:28:41;6.05;;;2.85;;
39214;SDS011;24932;51.746;14.334;2022-09-21T05:32:42;7.12;;;3.08;;
39214;SDS011;24932;51.746;14.334;2022-09-21T05:36:47;7.45;;;2.78;;
39214;SDS011;24932;51.746;14.334;2022-09-21T05:40:40;5.07;;;2.05;;
39214;SDS011;24932;51.746;14.334;2022-09-21T05:44:40;3.58;;;2.4;;
39214;SDS011;24932;51.746;14.334;2022-09-21T05:48:41;2.58;;;1.8;;
39214;SDS011;24932;51.746;14.334;2022-09-21T05:52:41;2.78;;;1.95;;
39214;SDS011;24932;51.746;14.334;2022-09-21T05:56:42;4.53;;;1.73;;
39214;SDS011;24932;51.746;14.334;2022-09-21T06:00:41;2.28;;;1.85;;
39214;SDS011;24932;51.746;14.334;2022-09-21T06:04:41;5.7;;;1.65;;
39214;SDS011;24932;51.746;14.334;2022-09-21T06:08:40;4.12;;;1.87;;
39214;SDS011;24932;51.746;14.334;2022-09-21T06:12:39;3.35;;;1.73;;
39214;SDS011;24932;51.746;14.334;2022-09-21T06:16:41;4.87;;;2.25;;
39214;SDS011;24932;51.746;14.334;2022-09-21T06:20:40;4.8;;;2.42;;
39214;SDS011;24932;51.746;14.334;2022-09-21T06:24:40;3.4;;;1.7;;
39214;SDS011;24932;51.746;14.334;2022-09-21T06:28:41;4.65;;;1.5;;
39214;SDS011;24932;51.746;14.334;2022-09-21T06:32:40;4.6;;;1.73;;
39214;SDS011;24932;51.746;14.334;2022-09-21T06:36:40;2.15;;;1.5;;
39214;SDS011;24932;51.746;14.334;2022-09-21T06:40:40;5.0;;;2.35;;
39214;SDS011;24932;51.746;14.334;2022-09-21T06:44:40;4.12;;;2.2;;
39214;SDS011;24932;51.746;14.334;2022-09-21T06:48:40;3.92;;;2.37;;
39214;SDS011;24932;51.746;14.334;2022-09-21T06:52:40;3.28;;;1.77;;
39214;SDS011;24932;51.746;14.334;2022-09-21T06:56:40;2.92;;;2.22;;
39214;SDS011;24932;51.746;14.334;2022-09-21T07:00:40;4.85;;;2.28;;
39214;SDS011;24932;51.746;14.334;2022-09-21T07:04:40;8.9;;;2.8;;
39214;SDS011;24932;51.746;14.334;2022-09-21T07:09:10;4.35;;;1.83;;
39214;SDS011;24932;51.746;14.334;2022-09-21T07:12:40;3.55;;;2.3;;
39214;SDS011;24932;51.746;14.334;2022-09-21T07:16:40;5.93;;;1.92;;
39214;SDS011;24932;51.746;14.334;2022-09-21T07:20:40;2.2;;;2.0;;
39214;SDS011;24932;51.746;14.334;2022-09-21T07:24:40;3.95;;;2.12;;
39214;SDS011;24932;51.746;14.334;2022-09-21T07:28:40;3.2;;;2.37;;
39214;SDS011;24932;51.746;14.334;2022-09-21T07:32:40;3.08;;;1.92;;
39214;SDS011;24932;51.746;14.334;2022-09-21T07:36:40;3.7;;;2.03;;
39214;SDS011;24932;51.746;14.334;2022-09-21T07:40:40;2.25;;;1.77;;
39214;SDS011;24932;51.746;14.334;2022-09-21T07:44:40;7.8;;;2.2;;
39214;SDS011;24932;51.746;14.334;2022-09-21T07:48:40;10.1;;;2.3;;
39214;SDS011;24932;51.746;14.334;2022-09-21T07:52:40;2.6;;;2.1;;
39214;SDS011;24932;51.746;14.334;2022-09-21T07:56:40;2.17;;;1.73;;
39214;SDS011;24932;51.746;14.334;2022-09-21T08:00:40;4.72;;;2.1;;
39214;SDS011;24932;51.746;14.334;2022-09-21T08:04:40;5.9;;;1.98;;
39214;SDS011;24932;51.746;14.334;2022-09-21T08:08:41;2.58;;;1.35;;
39214;SDS011;24932;51.746;14.334;2022-09-21T08:12:40;5.22;;;1.6;;
39214;SDS011;24932;51.746;14.334;2022-09-21T08:16:41;2.92;;;1.42;;
39214;SDS011;24932;51.746;14.334;2022-09-21T08:20:40;4.4;;;1.85;;
39214;SDS011;24932;51.746;14.334;2022-09-21T08:24:40;3.92;;;1.85;;
39214;SDS011;24932;51.746;14.334;2022-09-21T08:28:39;8.2;;;2.37;;
39214;SDS011;24932;51.746;14.334;2022-09-21T08:32:52;2.15;;;1.83;;
39214;SDS011;24932;51.746;14.334;2022-09-21T08:36:40;2.6;;;1.37;;
39214;SDS011;24932;51.746;14.334;2022-09-21T08:40:41;2.33;;;1.58;;
39214;SDS011;24932;51.746;14.334;2022-09-21T08:44:42;2.3;;;1.33;;
39214;SDS011;24932;51.746;14.334;2022-09-21T08:48:41;1.45;;;1.05;;
39214;SDS011;24932;51.746;14.334;2022-09-21T08:52:40;4.65;;;1.08;;
39214;SDS011;24932;51.746;14.334;2022-09-21T08:57:06;1.58;;;0.95;;
39214;SDS011;24932;51.746;14.334;2022-09-21T09:00:40;3.33;;;1.25;;
39214;SDS011;24932;51.746;14.334;2022-09-21T09:04:44;4.6;;;1.0;;
39214;SDS011;24932;51.746;14.334;2022-09-21T09:08:44;2.42;;;0.9;;
39214;SDS011;24932;51.746;14.334;2022-09-21T09:12:44;2.3;;;1.23;;
39214;SDS011;24932;51.746;14.334;2022-09-21T09:16:43;4.4;;;1.42;;
39214;SDS011;24932;51.746;14.334;2022-09-21T09:20:41;4.75;;;1.2;;
39214;SDS011;24932;51.746;14.334;2022-09-21T09:24:41;2.62;;;1.1;;
39214;SDS011;24932;51.746;14.334;2022-09-21T09:28:40;1.2;;;1.05;;
39214;SDS011;24932;51.746;14.334;2022-09-21T09:32:43;3.78;;;0.77;;
39214;SDS011;24932;51.746;14.334;2022-09-21T09:36:59;2.45;;;1.35;;
39214;SDS011;24932;51.746;14.334;2022-09-21T09:40:44;2.03;;;1.0;;
39214;SDS011;24932;51.746;14.334;2022-09-21T09:44:46;4.55;;;1.12;;
39214;SDS011;24932;51.746;14.334;2022-09-21T09:48:45;3.25;;;0.9;;
39214;SDS011;24932;51.746;14.334;2022-09-21T09:52:40;3.17;;;1.05;;
39214;SDS011;24932;51.746;14.334;2022-09-21T09:56:39;2.65;;;0.75;;
39214;SDS011;24932;51.746;14.334;2022-09-21T10:00:40;3.03;;;1.08;;
39214;SDS011;24932;51.746;14.334;2022-09-21T10:04:45;4.28;;;1.55;;
39214;SDS011;24932;51.746;14.334;2022-09-21T10:08:41;1.1;;;0.5;;
39214;SDS011;24932;51.746;14.334;2022-09-21T10:12:40;0.68;;;0.45;;
39214;SDS011;24932;51.746;14.334;2022-09-21T10:16:40;1.42;;;0.7;;
39214;SDS011;24932;51.746;14.334;2022-09-21T10:20:41;4.0;;;0.5;;
39214;SDS011;24932;51.746;14.334;2022-09-21T10:24:40;1.52;;;0.7;;
39214;SDS011;24932;51.746;14.334;2022-09-21T10:28:53;2.53;;;0.5;;
39214;SDS011;24932;51.746;14.334;2022-09-21T10:32:40;1.6;;;0.8;;
39214;SDS011;24932;51.746;14.334;2022-09-21T10:36:41;0.93;;;0.55;;
39214;SDS011;24932;51.746;14.334;2022-09-21T10:40:40;0.8;;;0.6;;
39214;SDS011;24932;51.746;14.334;2022-09-21T10:44:41;2.42;;;0.9;;
39214;SDS011;24932;51.746;14.334;2022-09-21T10:48:40;0.57;;;0.5;;
39214;SDS011;24932;51.746;14.334;2022-09-21T10:52:41;1.35;;;0.7;;
39214;SDS011;24932;51.746;14.334;2022-09-21T10:56:48;1.87;;;0.8;;
39214;SDS011;24932;51.746;14.334;2022-09-21T11:00:41;1.98;;;0.7;;
39214;SDS011;24932;51.746;14.334;2022-09-21T11:04:41;0.77;;;0.62;;
39214;SDS011;24932;51.746;14.334;2022-09-21T11:08:42;1.65;;;0.68;;
39214;SDS011;24932;51.746;14.334;2022-09-21T11:12:43;2.72;;;0.65;;
39214;SDS011;24932;51.746;14.334;2022-09-21T11:16:43;1.2;;;0.6;;
39214;SDS011;24932;51.746;14.334;2022-09-21T11:20:41;1.37;;;0.8;;
39214;SDS011;24932;51.746;14.334;2022-09-21T11:24:43;1.48;;;0.6;;
39214;SDS011;24932;51.746;14.334;2022-09-21T11:28:42;0.6;;;0.6;;
39214;SDS011;24932;51.746;14.334;2022-09-21T11:32:45;1.08;;;0.57;;
39214;SDS011;24932;51.746;14.334;2022-09-21T11:36:42;2.12;;;0.7;;
39214;SDS011;24932;51.746;14.334;2022-09-21T11:40:44;0.9;;;0.55;;
39214;SDS011;24932;51.746;14.334;2022-09-21T11:44:43;1.75;;;0.6;;
39214;SDS011;24932;51.746;14.334;2022-09-21T11:48:44;3.15;;;0.65;;
39214;SDS011;24932;51.746;14.334;2022-09-21T11:52:42;2.55;;;0.8;;
39214;SDS011;24932;51.746;14.334;2022-09-21T11:56:42;1.15;;;0.7;;
39214;SDS011;24932;51.746;14.334;2022-09-21T12:00:42;2.28;;;0.88;;
39214;SDS011;24932;51.746;14.334;2022-09-21T12:04:41;2.12;;;0.45;;
39214;SDS011;24932;51.746;14.334;2022-09-21T12:08:45;1.12;;;0.43;;
39214;SDS011;24932;51.746;14.334;2022-09-21T12:12:41;0.98;;;0.5;;
39214;SDS011;24932;51.746;14.334;2022-09-21T12:16:41;0.35;;;0.22;;
39214;SDS011;24932;51.746;14.334;2022-09-21T12:20:42;2.25;;;0.4;;
39214;SDS011;24932;51.746;14.334;2022-09-21T12:24:41;1.67;;;0.5;;
39214;SDS011;24932;51.746;14.334;2022-09-21T12:28:41;3.55;;;0.47;;
39214;SDS011;24932;51.746;14.334;2022-09-21T12:32:43;0.8;;;0.45;;
39214;SDS011;24932;51.746;14.334;2022-09-21T12:36:43;1.2;;;0.6;;
39214;SDS011;24932;51.746;14.334;2022-09-21T12:40:42;0.73;;;0.5;;
39214;SDS011;24932;51.746;14.334;2022-09-21T12:44:46;2.33;;;0.4;;
39214;SDS011;24932;51.746;14.334;2022-09-21T12:48:40;0.6;;;0.6;;
39214;SDS011;24932;51.746;14.334;2022-09-21T12:52:40;1.48;;;0.4;;
39214;SDS011;24932;51.746;14.334;2022-09-21T12:56:42;1.58;;;0.47;;
39214;SDS011;24932;51.746;14.334;2022-09-21T13:00:41;2.1;;;0.4;;
39214;SDS011;24932;51.746;14.334;2022-09-21T13:04:47;1.0;;;0.57;;
39214;SDS011;24932;51.746;14.334;2022-09-21T13:08:40;0.65;;;0.6;;
39214;SDS011;24932;51.746;14.334;2022-09-21T13:12:41;0.95;;;0.4;;
39214;SDS011;24932;51.746;14.334;2022-09-21T13:16:40;0.43;;;0.4;;
39214;SDS011;24932;51.746;14.334;2022-09-21T13:20:40;1.98;;;0.5;;
39214;SDS011;24932;51.746;14.334;2022-09-21T13:24:40;2.7;;;0.45;;
39214;SDS011;24932;51.746;14.334;2022-09-21T13:32:49;0.6;;;0.6;;
39214;SDS011;24932;51.746;14.334;2022-09-21T13:36:41;0.2;;;0.2;;
39214;SDS011;24932;51.746;14.334;2022-09-21T13:40:48;0.95;;;0.6;;
39214;SDS011;24932;51.746;14.334;2022-09-21T13:44:41;0.43;;;0.37;;
39214;SDS011;24932;51.746;14.334;2022-09-21T13:48:40;0.85;;;0.5;;
39214;SDS011;24932;51.746;14.334;2022-09-21T13:52:42;1.8;;;0.5;;
39214;SDS011;24932;51.746;14.334;2022-09-21T13:56:40;1.33;;;0.5;;
39214;SDS011;24932;51.746;14.334;2022-09-21T14:00:40;0.88;;;0.3;;
39214;SDS011;24932;51.746;14.334;2022-09-21T14:04:40;1.62;;;0.4;;
39214;SDS011;24932;51.746;14.334;2022-09-21T14:08:44;0.3;;;0.3;;
39214;SDS011;24932;51.746;14.334;2022-09-21T14:12:40;0.73;;;0.5;;
39214;SDS011;24932;51.746;14.334;2022-09-21T14:16:48;1.12;;;0.5;;
39214;SDS011;24932;51.746;14.334;2022-09-21T14:20:41;0.8;;;0.43;;
39214;SDS011;24932;51.746;14.334;2022-09-21T14:24:41;0.75;;;0.5;;
39214;SDS011;24932;51.746;14.334;2022-09-21T14:28:41;1.35;;;0.6;;
39214;SDS011;24932;51.746;14.334;2022-09-21T14:32:41;2.05;;;0.8;;
39214;SDS011;24932;51.746;14.334;2022-09-21T14:36:42;4.32;;;0.75;;
39214;SDS011;24932;51.746;14.334;2022-09-21T14:40:44;3.87;;;0.6;;
39214;SDS011;24932;51.746;14.334;2022-09-21T14:44:41;0.65;;;0.35;;
39214;SDS011;24932;51.746;14.334;2022-09-21T14:48:42;1.73;;;0.57;;
39214;SDS011;24932;51.746;14.334;2022-09-21T14:52:45;2.45;;;0.52;;
39214;SDS011;24932;51.746;14.334;2022-09-21T14:56:44;2.17;;;0.62;;
39214;SDS011;24932;51.746;14.334;2022-09-21T15:00:41;2.97;;;0.85;;
39214;SDS011;24932;51.746;14.334;2022-09-21T15:04:50;1.27;;;0.3;;
39214;SDS011;24932;51.746;14.334;2022-09-21T15:08:44;1.33;;;0.5;;
39214;SDS011;24932;51.746;14.334;2022-09-21T15:12:43;0.3;;;0.3;;
39214;SDS011;24932;51.746;14.334;2022-09-21T15:16:41;1.6;;;0.4;;
39214;SDS011;24932;51.746;14.334;2022-09-21T15:20:40;2.03;;;0.6;;
39214;SDS011;24932;51.746;14.334;2022-09-21T15:24:47;2.22;;;0.6;;
39214;SDS011;24932;51.746;14.334;2022-09-21T15:29:12;0.5;;;0.4;;
39214;SDS011;24932;51.746;14.334;2022-09-21T15:32:41;0.6;;;0.52;;
39214;SDS011;24932;51.746;14.334;2022-09-21T15:36:41;2.72;;;0.57;;
39214;SDS011;24932;51.746;14.334;2022-09-21T15:40:45;1.5;;;0.55;;
39214;SDS011;24932;51.746;14.334;2022-09-21T15:44:40;1.02;;;0.55;;
39214;SDS011;24932;51.746;14.334;2022-09-21T15:48:40;1.75;;;0.6;;
39214;SDS011;24932;51.746;14.334;2022-09-21T15:52:40;0.98;;;0.4;;
39214;SDS011;24932;51.746;14.334;2022-09-21T15:56:41;7.43;;;1.5;;
39214;SDS011;24932;51.746;14.334;2022-09-21T16:00:41;1.2;;;0.73;;
39214;SDS011;24932;51.746;14.334;2022-09-21T16:04:43;3.55;;;1.42;;
39214;SDS011;24932;51.746;14.334;2022-09-21T16:08:40;4.12;;;0.68;;
39214;SDS011;24932;51.746;14.334;2022-09-21T16:12:41;0.4;;;0.4;;
39214;SDS011;24932;51.746;14.334;2022-09-21T16:17:03;1.48;;;0.7;;
39214;SDS011;24932;51.746;14.334;2022-09-21T16:20:42;1.2;;;0.6;;
39214;SDS011;24932;51.746;14.334;2022-09-21T16:24:44;1.85;;;0.75;;
39214;SDS011;24932;51.746;14.334;2022-09-21T16:28:41;1.5;;;0.82;;
39214;SDS011;24932;51.746;14.334;2022-09-21T16:32:40;1.3;;;0.65;;
39214;SDS011;24932;51.746;14.334;2022-09-21T16:36:41;1.25;;;0.6;;
39214;SDS011;24932;51.746;14.334;2022-09-21T16:40:41;2.95;;;0.7;;
39214;SDS011;24932;51.746;14.334;2022-09-21T16:44:40;1.6;;;0.6;;
39214;SDS011;24932;51.746;14.334;2022-09-21T16:48:40;0.8;;;0.7;;
39214;SDS011;24932;51.746;14.334;2022-09-21T16:52:40;1.73;;;1.2;;
39214;SDS011;24932;51.746;14.334;2022-09-21T16:56:41;1.58;;;0.75;;
39214;SDS011;24932;51.746;14.334;2022-09-21T17:00:40;10.77;;;1.37;;
39214;SDS011;24932;51.746;14.334;2022-09-21T17:04:41;1.37;;;0.77;;
39214;SDS011;24932;51.746;14.334;2022-09-21T17:08:40;2.6;;;0.88;;
39214;SDS011;24932;51.746;14.334;2022-09-21T17:12:40;1.42;;;0.85;;
39214;SDS011;24932;51.746;14.334;2022-09-21T17:16:44;3.6;;;0.8;;
39214;SDS011;24932;51.746;14.334;2022-09-21T17:20:41;2.05;;;1.2;;
39214;SDS011;24932;51.746;14.334;2022-09-21T17:24:54;3.37;;;1.3;;
39214;SDS011;24932;51.746;14.334;2022-09-21T17:28:40;1.62;;;1.08;;
39214;SDS011;24932;51.746;14.334;2022-09-21T17:32:40;5.45;;;1.75;;
39214;SDS011;24932;51.746;14.334;2022-09-21T17:36:40;1.25;;;1.08;;
39214;SDS011;24932;51.746;14.334;2022-09-21T17:40:41;5.4;;;1.67;;
39214;SDS011;24932;51.746;14.334;2022-09-21T17:44:43;4.25;;;1.98;;
39214;SDS011;24932;51.746;14.334;2022-09-21T17:48:40;6.87;;;2.25;;
39214;SDS011;24932;51.746;14.334;2022-09-21T17:52:41;3.4;;;1.87;;
39214;SDS011;24932;51.746;14.334;2022-09-21T17:56:41;3.05;;;1.62;;
39214;SDS011;24932;51.746;14.334;2022-09-21T18:00:42;2.72;;;2.1;;
39214;SDS011;24932;51.746;14.334;2022-09-21T18:04:40;5.28;;;2.4;;
39214;SDS011;24932;51.746;14.334;2022-09-21T18:08:40;3.62;;;2.25;;
39214;SDS011;24932;51.746;14.334;2022-09-21T18:12:44;3.1;;;2.33;;
39214;SDS011;24932;51.746;14.334;2022-09-21T18:16:42;10.68;;;3.53;;
39214;SDS011;24932;51.746;14.334;2022-09-21T18:20:44;5.43;;;2.5;;
39214;SDS011;24932;51.746;14.334;2022-09-21T18:24:41;4.75;;;2.35;;
39214;SDS011;24932;51.746;14.334;2022-09-21T18:28:41;3.33;;;2.5;;
39214;SDS011;24932;51.746;14.334;2022-09-21T18:32:45;4.3;;;2.78;;
39214;SDS011;24932;51.746;14.334;2022-09-21T18:36:42;3.62;;;2.9;;
39214;SDS011;24932;51.746;14.334;2022-09-21T18:40:43;3.95;;;3.15;;
39214;SDS011;24932;51.746;14.334;2022-09-21T18:44:41;7.15;;;4.3;;
39214;SDS011;24932;51.746;14.334;2022-09-21T18:48:44;6.87;;;3.62;;
39214;SDS011;24932;51.746;14.334;2022-09-21T18:52:41;8.4;;;3.6;;
39214;SDS011;24932;51.746;14.334;2022-09-21T18:56:41;5.25;;;3.9;;
39214;SDS011;24932;51.746;14.334;2022-09-21T19:00:40;5.62;;;4.22;;
39214;SDS011;24932;51.746;14.334;2022-09-21T19:04:40;9.05;;;4.45;;
39214;SDS011;24932;51.746;14.334;2022-09-21T19:08:41;10.25;;;4.6;;
39214;SDS011;24932;51.746;14.334;2022-09-21T19:12:45;6.8;;;4.6;;
39214;SDS011;24932;51.746;14.334;2022-09-21T19:16:44;12.4;;;10.02;;
39214;SDS011;24932;51.746;14.334;2022-09-21T19:20:45;7.97;;;5.72;;
39214;SDS011;24932;51.746;14.334;2022-09-21T19:24:42;9.25;;;5.1;;
39214;SDS011;24932;51.746;14.334;2022-09-21T19:28:48;7.35;;;5.43;;
39214;SDS011;24932;51.746;14.334;2022-09-21T19:32:43;8.02;;;5.18;;
39214;SDS011;24932;51.746;14.334;2022-09-21T19:36:40;7.18;;;4.72;;
39214;SDS011;24932;51.746;14.334;2022-09-21T19:40:40;10.27;;;4.07;;
39214;SDS011;24932;51.746;14.334;2022-09-21T19:44:44;7.47;;;4.4;;
39214;SDS011;24932;51.746;14.334;2022-09-21T19:48:41;7.55;;;4.5;;
39214;SDS011;24932;51.746;14.334;2022-09-21T19:52:39;7.95;;;5.2;;
39214;SDS011;24932;51.746;14.334;2022-09-21T19:56:43;5.18;;;4.28;;
39214;SDS011;24932;51.746;14.334;2022-09-21T20:00:40;5.1;;;4.2;;
39214;SDS011;24932;51.746;14.334;2022-09-21T20:04:42;6.35;;;4.43;;
39214;SDS011;24932;51.746;14.334;2022-09-21T20:08:41;5.9;;;4.22;;
39214;SDS011;24932;51.746;14.334;2022-09-21T20:12:42;5.37;;;3.95;;
39214;SDS011;24932;51.746;14.334;2022-09-21T20:16:42;6.68;;;3.7;;
39214;SDS011;24932;51.746;14.334;2022-09-21T20:20:41;6.93;;;3.4;;
39214;SDS011;24932;51.746;14.334;2022-09-21T20:24:43;3.3;;;3.0;;
39214;SDS011;24932;51.746;14.334;2022-09-21T20:28:40;4.4;;;2.7;;
39214;SDS011;24932;51.746;14.334;2022-09-21T20:32:41;3.92;;;3.37;;
39214;SDS011;24932;51.746;14.334;2022-09-21T20:36:40;7.47;;;3.3;;
39214;SDS011;24932;51.746;14.334;2022-09-21T20:40:41;5.18;;;3.47;;
39214;SDS011;24932;51.746;14.334;2022-09-21T20:44:40;4.82;;;3.8;;
39214;SDS011;24932;51.746;14.334;2022-09-21T20:48:40;8.75;;;4.1;;
39214;SDS011;24932;51.746;14.334;2022-09-21T20:52:41;6.72;;;4.57;;
39214;SDS011;24932;51.746;14.334;2022-09-21T20:56:41;9.9;;;5.1;;
39214;SDS011;24932;51.746;14.334;2022-09-21T21:00:41;7.37;;;3.92;;
39214;SDS011;24932;51.746;14.334;2022-09-21T21:04:41;6.57;;;3.75;;
39214;SDS011;24932;51.746;14.334;2022-09-21T21:08:40;6.45;;;4.82;;
39214;SDS011;24932;51.746;14.334;2022-09-21T21:12:40;5.85;;;3.28;;
39214;SDS011;24932;51.746;14.334;2022-09-21T21:16:40;5.37;;;2.72;;
39214;SDS011;24932;51.746;14.334;2022-09-21T21:20:39;8.32;;;3.33;;
39214;SDS011;24932;51.746;14.334;2022-09-21T21:24:40;5.07;;;2.7;;
39214;SDS011;24932;51.746;14.334;2022-09-21T21:28:40;7.82;;;3.08;;
39214;SDS011;24932;51.746;14.334;2022-09-21T21:32:40;4.32;;;2.7;;
39214;SDS011;24932;51.746;14.334;2022-09-21T21:36:40;5.1;;;2.8;;
39214;SDS011;24932;51.746;14.334;2022-09-21T21:40:40;7.1;;;3.15;;
39214;SDS011;24932;51.746;14.334;2022-09-21T21:44:40;8.1;;;5.37;;
39214;SDS011;24932;51.746;14.334;2022-09-21T21:48:41;4.53;;;3.35;;
39214;SDS011;24932;51.746;14.334;2022-09-21T21:52:40;4.53;;;3.17;;
39214;SDS011;24932;51.746;14.334;2022-09-21T21:56:40;5.9;;;3.4;;
39214;SDS011;24932;51.746;14.334;2022-09-21T22:00:40;3.3;;;2.15;;
39214;SDS011;24932;51.746;14.334;2022-09-21T22:04:40;7.45;;;2.8;;
39214;SDS011;24932;51.746;14.334;2022-09-21T22:08:41;4.95;;;3.25;;
39214;SDS011;24932;51.746;14.334;2022-09-21T22:12:41;4.62;;;3.1;;
39214;SDS011;24932;51.746;14.334;2022-09-21T22:16:40;5.07;;;3.3;;
39214;SDS011;24932;51.746;14.334;2022-09-21T22:20:40;6.78;;;3.58;;
39214;SDS011;24932;51.746;14.334;2022-09-21T22:24:40;3.7;;;3.0;;
39214;SDS011;24932;51.746;14.334;2022-09-21T22:28:41;6.05;;;3.37;;
39214;SDS011;24932;51.746;14.334;2022-09-21T22:32:40;3.45;;;2.45;;
39214;SDS011;24932;51.746;14.334;2022-09-21T22:36:40;3.72;;;3.05;;
39214;SDS011;24932;51.746;14.334;2022-09-21T22:40:40;6.8;;;3.1;;
39214;SDS011;24932;51.746;14.334;2022-09-21T22:44:40;3.97;;;3.0;;
39214;SDS011;24932;51.746;14.334;2022-09-21T22:48:40;8.15;;;3.87;;
39214;SDS011;24932;51.746;14.334;2022-09-21T22:52:40;4.05;;;2.9;;
39214;SDS011;24932;51.746;14.334;2022-09-21T22:56:40;8.32;;;3.2;;
39214;SDS011;24932;51.746;14.334;2022-09-21T23:00:40;8.13;;;3.25;;
39214;SDS011;24932;51.746;14.334;2022-09-21T23:04:40;6.12;;;3.42;;
39214;SDS011;24932;51.746;14.334;2022-09-21T23:08:40;3.72;;;3.0;;
39214;SDS011;24932;51.746;14.334;2022-09-21T23:12:40;4.15;;;3.42;;
39214;SDS011;24932;51.746;14.334;2022-09-21T23:16:40;7.5;;;3.83;;
39214;SDS011;24932;51.746;14.334;2022-09-21T23:20:40;7.22;;;3.0;;
39214;SDS011;24932;51.746;14.334;2022-09-21T23:24:41;3.97;;;3.25;;
39214;SDS011;24932;51.746;14.334;2022-09-21T23:28:41;3.08;;;2.6;;
39214;SDS011;24932;51.746;14.334;2022-09-21T23:32:40;3.08;;;2.65;;
39214;SDS011;24932;51.746;14.334;2022-09-21T23:36:40;3.55;;;2.55;;
39214;SDS011;24932;51.746;14.334;2022-09-21T23:40:40;4.25;;;2.55;;
39214;SDS011;24932;51.746;14.334;2022-09-21T23:44:40;6.72;;;2.65;;
39214;SDS011;24932;51.746;14.334;2022-09-21T23:48:41;6.25;;;2.53;;
39214;SDS011;24932;51.746;14.334;2022-09-21T23:52:40;2.55;;;2.35;;
39214;SDS011;24932;51.746;14.334;2022-09-21T23:56:41;3.55;;;2.47;;
